createdAt,value
2023-03-02T00:00:17.061Z,92.70
2023-03-02T00:03:06.825Z,92.70
2023-03-02T00:05:56.772Z,92.80
2023-03-02T00:08:46.733Z,92.80
2023-03-02T00:11:36.980Z,92.80
2023-03-02T00:14:24.732Z,92.90
2023-03-02T00:17:12.446Z,92.90
2023-03-02T00:20:12.229Z,92.90
2023-03-02T00:23:00.210Z,93.00
2023-03-02T00:25:49.484Z,93.00
2023-03-02T00:28:37.086Z,93.00
2023-03-02T00:31:24.926Z,93.00
2023-03-02T00:34:12.504Z,93.10
2023-03-02T00:37:00.120Z,93.10
2023-03-02T00:39:48.155Z,93.10
2023-03-02T00:42:37.460Z,93.10
2023-03-02T00:45:25.100Z,93.10
2023-03-02T00:48:14.468Z,93.20
2023-03-02T00:51:03.039Z,93.20
2023-03-02T00:53:51.062Z,93.20
2023-03-02T00:56:38.282Z,93.30
2023-03-02T00:59:28.684Z,93.30
2023-03-02T01:02:26.813Z,93.30
2023-03-02T01:05:14.783Z,93.40
2023-03-02T01:08:02.510Z,93.40
2023-03-02T01:10:49.946Z,93.40
2023-03-02T01:13:37.409Z,93.40
2023-03-02T01:16:27.614Z,93.40
2023-03-02T01:19:15.430Z,93.40
2023-03-02T01:22:03.580Z,93.40
2023-03-02T01:24:51.279Z,93.40
2023-03-02T01:27:39.249Z,93.40
2023-03-02T01:30:27.666Z,93.40
2023-03-02T01:33:17.230Z,93.50
2023-03-02T01:36:04.795Z,93.50
2023-03-02T01:38:54.433Z,93.60
2023-03-02T01:41:42.004Z,93.60
2023-03-02T01:44:46.315Z,93.60
2023-03-02T01:47:37.851Z,93.70
2023-03-02T01:50:33.802Z,93.70
2023-03-02T01:53:23.312Z,93.70
2023-03-02T01:56:10.884Z,93.80
2023-03-02T01:59:02.441Z,93.80
2023-03-02T02:01:53.380Z,93.80
2023-03-02T02:04:44.538Z,93.90
2023-03-02T02:07:33.531Z,93.90
2023-03-02T02:10:21.782Z,94.00
2023-03-02T02:13:12.016Z,94.00
2023-03-02T02:15:59.422Z,94.00
2023-03-02T02:18:47.488Z,94.00
2023-03-02T02:21:34.868Z,94.00
2023-03-02T02:24:32.492Z,94.10
2023-03-02T02:27:21.890Z,94.20
2023-03-02T02:30:12.189Z,94.20
2023-03-02T02:33:01.605Z,94.20
2023-03-02T02:35:49.484Z,94.30
2023-03-02T02:38:38.949Z,94.30
2023-03-02T02:41:35.357Z,94.30
2023-03-02T02:44:25.074Z,94.30
2023-03-02T02:47:18.829Z,94.30
2023-03-02T02:50:07.524Z,94.40
2023-03-02T02:53:00.634Z,94.40
2023-03-02T02:55:49.797Z,94.30
2023-03-02T02:58:43.607Z,94.20
2023-03-02T03:01:35.125Z,94.30
2023-03-02T03:04:26.965Z,94.40
2023-03-02T03:07:21.399Z,94.40
2023-03-02T03:10:17.148Z,94.40
2023-03-02T03:13:04.810Z,94.40
2023-03-02T03:15:52.759Z,94.40
2023-03-02T03:18:43.977Z,94.40
2023-03-02T03:21:32.052Z,94.50
2023-03-02T03:24:20.770Z,94.50
2023-03-02T03:27:11.667Z,94.50
2023-03-02T03:30:02.196Z,94.60
2023-03-02T03:32:52.716Z,94.60
2023-03-02T03:35:42.502Z,94.60
2023-03-02T03:38:31.841Z,94.60
2023-03-02T03:41:19.830Z,94.70
2023-03-02T03:44:07.295Z,94.70
2023-03-02T03:46:56.929Z,94.80
2023-03-02T03:49:44.593Z,94.80
2023-03-02T03:52:34.075Z,94.80
2023-03-02T03:55:30.369Z,94.80
2023-03-02T03:58:18.995Z,94.80
2023-03-02T04:01:06.768Z,94.90
2023-03-02T04:03:54.213Z,94.90
2023-03-02T04:06:42.025Z,94.90
2023-03-02T04:09:32.497Z,95.00
2023-03-02T04:12:20.950Z,95.00
2023-03-02T04:15:16.383Z,95.00
2023-03-02T04:18:05.962Z,95.00
2023-03-02T04:20:55.110Z,95.00
2023-03-02T04:23:42.958Z,95.00
2023-03-02T04:26:32.318Z,95.10
2023-03-02T04:29:21.416Z,95.10
2023-03-02T04:32:09.278Z,95.10
2023-03-02T04:35:02.430Z,95.20
2023-03-02T04:37:49.886Z,95.20
2023-03-02T04:40:37.006Z,95.20
2023-03-02T04:43:27.348Z,95.30
2023-03-02T04:46:17.451Z,95.30
2023-03-02T04:49:06.292Z,95.30
2023-03-02T04:51:54.043Z,95.30
2023-03-02T04:54:41.336Z,95.30
2023-03-02T04:57:28.754Z,95.30
2023-03-02T05:00:21.186Z,95.20
2023-03-02T05:03:08.904Z,95.20
2023-03-02T05:05:57.521Z,95.10
2023-03-02T05:08:46.104Z,95.10
2023-03-02T05:11:33.773Z,95.10
2023-03-02T05:14:21.546Z,95.10
2023-03-02T05:17:10.358Z,95.10
2023-03-02T05:19:58.148Z,95.10
2023-03-02T05:22:45.458Z,95.10
2023-03-02T05:25:35.480Z,95.10
2023-03-02T05:28:24.816Z,95.10
2023-03-02T05:31:19.848Z,95.20
2023-03-02T05:34:13.124Z,95.30
2023-03-02T05:37:01.850Z,95.30
2023-03-02T05:39:49.499Z,95.30
2023-03-02T05:42:37.086Z,95.30
2023-03-02T05:45:28.317Z,95.30
2023-03-02T05:48:16.843Z,95.40
2023-03-02T05:51:05.959Z,95.40
2023-03-02T05:53:53.457Z,95.40
2023-03-02T05:56:40.950Z,95.40
2023-03-02T05:59:28.505Z,95.50
2023-03-02T06:02:16.280Z,95.50
2023-03-02T06:05:04.110Z,95.50
2023-03-02T06:07:53.324Z,95.50
2023-03-02T06:10:40.831Z,95.50
2023-03-02T06:13:28.924Z,95.60
2023-03-02T06:16:16.567Z,95.60
2023-03-02T06:19:04.323Z,95.60
2023-03-02T06:21:51.621Z,95.70
2023-03-02T06:24:40.690Z,95.70
2023-03-02T06:27:32.085Z,95.70
2023-03-02T06:30:27.044Z,95.70
2023-03-02T06:33:21.711Z,95.70
2023-03-02T06:36:12.741Z,95.70
2023-03-02T06:39:00.394Z,95.70
2023-03-02T06:41:50.106Z,95.80
2023-03-02T06:44:37.354Z,95.80
2023-03-02T06:47:25.450Z,95.80
2023-03-02T06:50:13.152Z,95.80
2023-03-02T06:53:00.316Z,95.80
2023-03-02T06:55:48.770Z,95.80
2023-03-02T06:58:38.065Z,95.90
2023-03-02T07:01:25.239Z,95.90
2023-03-02T07:04:12.343Z,95.90
2023-03-02T07:06:59.505Z,95.90
2023-03-02T07:09:46.842Z,96.00
2023-03-02T07:12:34.201Z,96.00
2023-03-02T07:15:22.800Z,96.00
2023-03-02T07:18:10.158Z,96.00
2023-03-02T07:20:57.788Z,96.00
2023-03-02T07:23:45.101Z,96.10
2023-03-02T07:26:35.231Z,96.10
2023-03-02T07:29:22.664Z,96.00
2023-03-02T07:32:12.674Z,95.90
2023-03-02T07:35:02.521Z,95.90
2023-03-02T07:37:49.974Z,95.90
2023-03-02T07:40:41.370Z,95.90
2023-03-02T07:43:29.524Z,95.80
2023-03-02T07:46:16.910Z,95.80
2023-03-02T07:49:05.526Z,95.70
2023-03-02T07:51:52.700Z,95.70
2023-03-02T07:54:39.924Z,95.60
2023-03-02T07:57:27.234Z,95.60
2023-03-02T08:00:15.925Z,95.90
2023-03-02T08:03:03.485Z,95.40
2023-03-02T08:05:51.982Z,95.20
2023-03-02T08:08:39.790Z,95.10
2023-03-02T08:11:27.158Z,95.00
2023-03-02T08:14:14.423Z,94.90
2023-03-02T08:17:02.428Z,94.80
2023-03-02T08:19:49.735Z,94.80
2023-03-02T08:22:38.551Z,94.60
2023-03-02T08:25:25.502Z,94.50
2023-03-02T08:28:12.767Z,94.30
2023-03-02T08:31:02.384Z,94.00
2023-03-02T08:33:49.936Z,93.80
2023-03-02T08:36:37.068Z,93.60
2023-03-02T08:39:25.553Z,93.40
2023-03-02T08:42:12.760Z,93.20
2023-03-02T08:45:00.005Z,93.00
2023-03-02T08:47:46.793Z,92.80
2023-03-02T08:50:33.788Z,92.60
2023-03-02T08:53:20.875Z,92.70
2023-03-02T08:56:17.639Z,92.20
2023-03-02T08:59:07.135Z,92.00
2023-03-02T09:01:54.612Z,92.00
2023-03-02T09:04:41.643Z,92.00
2023-03-02T09:07:30.810Z,91.80
2023-03-02T09:10:17.934Z,91.70
2023-03-02T09:13:08.567Z,91.50
2023-03-02T09:15:55.822Z,91.40
2023-03-02T09:18:43.489Z,91.40
2023-03-02T09:21:31.005Z,91.10
2023-03-02T09:24:18.624Z,90.90
2023-03-02T09:27:05.847Z,90.80
2023-03-02T09:29:54.638Z,90.70
2023-03-02T09:32:41.900Z,90.50
2023-03-02T09:35:29.149Z,90.50
2023-03-02T09:38:18.805Z,90.40
2023-03-02T09:41:30.034Z,90.20
2023-03-02T09:44:35.165Z,90.10
2023-03-02T09:47:35.847Z,89.70
2023-03-02T09:50:31.378Z,89.50
2023-03-02T09:53:32.435Z,88.40
2023-03-02T09:56:21.211Z,87.80
2023-03-02T09:59:15.539Z,86.80
2023-03-02T10:02:12.343Z,84.40
2023-03-02T10:05:03.576Z,83.30
2023-03-02T10:07:50.928Z,83.40
2023-03-02T10:10:44.706Z,82.70
2023-03-02T10:13:44.990Z,82.60
2023-03-02T10:16:38.835Z,81.70
2023-03-02T10:19:32.768Z,80.10
2023-03-02T10:22:28.382Z,78.80
2023-03-02T10:25:31.268Z,76.70
2023-03-02T10:28:22.312Z,76.40
2023-03-02T10:31:11.678Z,76.20
2023-03-02T10:34:00.232Z,73.10
2023-03-02T10:36:48.502Z,67.90
2023-03-02T10:39:37.041Z,65.00
2023-03-02T10:42:30.482Z,61.60
2023-03-02T10:45:24.544Z,58.60
2023-03-02T10:48:13.180Z,60.00
2023-03-02T10:51:01.625Z,59.80
2023-03-02T10:53:48.600Z,54.40
2023-03-02T10:56:37.838Z,52.80
2023-03-02T10:59:39.904Z,50.30
2023-03-02T11:02:29.769Z,47.90
2023-03-02T11:05:30.491Z,47.70
2023-03-02T11:08:20.456Z,47.50
2023-03-02T11:11:07.341Z,46.40
2023-03-02T11:13:57.078Z,45.30
2023-03-02T11:16:44.298Z,45.20
2023-03-02T11:19:36.412Z,44.30
2023-03-02T11:22:35.483Z,44.00
2023-03-02T11:25:31.527Z,43.50
2023-03-02T11:28:33.300Z,44.80
2023-03-02T11:31:34.085Z,46.70
2023-03-02T11:34:29.267Z,47.90
2023-03-02T11:37:19.872Z,50.00
2023-03-02T11:40:20.621Z,50.80
2023-03-02T11:43:09.741Z,51.10
2023-03-02T11:46:01.770Z,52.50
2023-03-02T11:48:53.352Z,52.80
2023-03-02T11:51:57.707Z,53.30
2023-03-02T11:54:47.888Z,54.70
2023-03-02T11:57:39.632Z,56.60
2023-03-02T12:00:32.968Z,56.50
2023-03-02T12:03:24.170Z,56.10
2023-03-02T12:09:26.374Z,56.20
2023-03-02T12:12:34.181Z,57.50
2023-03-02T12:15:37.803Z,58.10
2023-03-02T12:18:32.245Z,58.30
2023-03-02T12:21:20.954Z,59.00
2023-03-02T12:24:27.792Z,58.70
2023-03-02T12:27:35.724Z,58.70
2023-03-02T12:30:27.384Z,58.90
2023-03-02T12:33:21.297Z,58.30
2023-03-02T12:36:15.343Z,58.10
2023-03-02T12:39:25.065Z,57.90
2023-03-02T12:42:39.344Z,58.20
2023-03-02T12:45:39.134Z,58.00
2023-03-02T12:48:30.956Z,58.00
2023-03-02T12:51:22.612Z,57.90
2023-03-02T12:54:16.928Z,58.70
2023-03-02T12:57:09.900Z,58.30
2023-03-02T13:00:00.312Z,58.10
2023-03-02T13:02:50.360Z,58.40
2023-03-02T13:05:37.969Z,57.80
2023-03-02T13:08:29.763Z,57.80
2023-03-02T13:11:25.669Z,58.30
2023-03-02T13:14:23.340Z,58.10
2023-03-02T13:17:24.749Z,57.90
2023-03-02T13:20:15.391Z,58.00
2023-03-02T13:23:02.579Z,58.10
2023-03-02T13:25:52.255Z,57.70
2023-03-02T13:28:41.217Z,57.30
2023-03-02T13:31:28.482Z,56.90
2023-03-02T13:34:24.391Z,57.00
2023-03-02T13:37:23.183Z,57.30
2023-03-02T13:40:33.253Z,57.30
2023-03-02T13:43:24.483Z,56.70
2023-03-02T13:46:29.137Z,56.60
2023-03-02T13:49:26.863Z,55.90
2023-03-02T13:52:27.314Z,56.60
2023-03-02T13:55:16.482Z,56.80
2023-03-02T13:58:04.053Z,56.80
2023-03-02T14:00:51.824Z,56.90
2023-03-02T14:03:38.785Z,56.70
2023-03-02T14:06:26.145Z,55.90
2023-03-02T14:09:15.105Z,55.30
2023-03-02T14:12:02.278Z,55.40
2023-03-02T14:14:49.855Z,55.30
2023-03-02T14:17:37.093Z,54.80
2023-03-02T14:20:24.289Z,55.00
2023-03-02T14:23:11.682Z,55.60
2023-03-02T14:26:00.267Z,55.90
2023-03-02T14:28:51.083Z,55.80
2023-03-02T14:31:41.138Z,56.10
2023-03-02T14:34:28.194Z,55.70
2023-03-02T14:37:16.818Z,55.80
2023-03-02T14:40:04.033Z,55.10
2023-03-02T14:42:53.421Z,54.30
2023-03-02T14:45:40.506Z,53.60
2023-03-02T14:48:27.825Z,53.40
2023-03-02T14:51:23.157Z,53.00
2023-03-02T14:54:15.854Z,52.40
2023-03-02T14:57:06.509Z,52.00
2023-03-02T14:59:56.284Z,51.90
2023-03-02T15:02:43.752Z,52.00
2023-03-02T15:05:33.501Z,52.40
2023-03-02T15:08:21.163Z,52.20
2023-03-02T15:11:08.330Z,51.90
2023-03-02T15:13:55.320Z,51.70
2023-03-02T15:16:43.920Z,51.50
2023-03-02T15:19:30.798Z,51.70
2023-03-02T15:22:18.108Z,51.80
2023-03-02T15:25:05.138Z,52.10
2023-03-02T15:27:52.164Z,52.70
2023-03-02T15:30:39.427Z,52.90
2023-03-02T15:33:28.070Z,53.40
2023-03-02T15:36:42.883Z,54.20
2023-03-02T15:39:30.201Z,54.70
2023-03-02T15:42:17.119Z,56.30
2023-03-02T15:45:04.878Z,56.40
2023-03-02T15:47:52.003Z,57.20
2023-03-02T15:50:40.713Z,57.80
2023-03-02T15:53:27.904Z,58.50
2023-03-02T15:56:17.083Z,59.10
2023-03-02T15:59:04.615Z,59.80
2023-03-02T16:01:51.690Z,60.50
2023-03-02T16:04:38.865Z,61.40
2023-03-02T16:07:27.409Z,62.20
2023-03-02T16:10:16.634Z,62.90
2023-03-02T16:13:04.341Z,63.60
2023-03-02T16:15:51.410Z,64.30
2023-03-02T16:18:38.793Z,64.80
2023-03-02T16:21:28.482Z,65.10
2023-03-02T16:24:17.391Z,65.70
2023-03-02T16:27:05.172Z,66.20
2023-03-02T16:29:52.240Z,66.60
2023-03-02T16:32:39.602Z,67.20
2023-03-02T16:35:27.285Z,67.70
2023-03-02T16:38:14.598Z,68.50
2023-03-02T16:41:03.328Z,68.80
2023-03-02T16:43:52.646Z,69.40
2023-03-02T16:46:43.703Z,69.80
2023-03-02T16:49:34.157Z,70.30
2023-03-02T16:52:21.150Z,70.90
2023-03-02T16:55:13.207Z,71.20
2023-03-02T16:58:01.542Z,71.70
2023-03-02T17:00:48.682Z,72.00
2023-03-02T17:03:36.134Z,72.40
2023-03-02T17:06:25.173Z,72.80
2023-03-02T17:09:13.621Z,73.40
2023-03-02T17:12:01.005Z,73.80
2023-03-02T17:14:49.681Z,74.30
2023-03-02T17:17:36.723Z,74.60
2023-03-02T17:20:24.151Z,74.90
2023-03-02T17:23:12.614Z,75.30
2023-03-02T17:26:13.333Z,75.60
2023-03-02T17:29:06.864Z,76.00
2023-03-02T17:32:03.167Z,76.30
2023-03-02T17:34:50.768Z,76.70
2023-03-02T17:37:38.147Z,77.00
2023-03-02T17:40:25.176Z,77.30
2023-03-02T17:43:12.856Z,77.70
2023-03-02T17:46:11.417Z,78.20
2023-03-02T17:49:01.461Z,78.40
2023-03-02T17:51:48.773Z,78.70
2023-03-02T17:54:36.117Z,79.10
2023-03-02T17:57:23.340Z,78.20
2023-03-02T18:00:14.359Z,79.70
2023-03-02T18:03:01.605Z,79.90
2023-03-02T18:05:50.241Z,80.20
2023-03-02T18:08:38.191Z,80.40
2023-03-02T18:11:26.346Z,79.10
2023-03-02T18:14:16.739Z,81.00
2023-03-02T18:17:07.569Z,81.10
2023-03-02T18:19:54.618Z,80.20
2023-03-02T18:39:29.431Z,82.70
2023-03-02T18:42:16.620Z,83.60
2023-03-02T18:45:03.988Z,83.60
2023-03-02T18:47:51.106Z,83.70
2023-03-02T18:50:39.683Z,83.90
2023-03-02T18:53:27.174Z,85.10
2023-03-02T18:56:16.607Z,84.40
2023-03-02T18:59:05.918Z,84.60
2023-03-02T19:01:53.259Z,84.80
2023-03-02T19:04:40.637Z,85.00
2023-03-02T19:07:28.577Z,85.10
2023-03-02T19:10:16.775Z,85.40
2023-03-02T19:13:05.913Z,85.60
2023-03-02T19:15:55.749Z,85.80
2023-03-02T19:18:43.444Z,86.10
2023-03-02T19:21:30.955Z,86.20
2023-03-02T19:24:18.601Z,86.40
2023-03-02T19:27:06.359Z,86.50
2023-03-02T19:29:55.806Z,86.70
2023-03-02T19:32:43.526Z,87.00
2023-03-02T19:35:31.987Z,87.10
2023-03-02T19:38:19.801Z,87.50
2023-03-02T19:41:07.783Z,87.50
2023-03-02T19:43:56.202Z,87.70
2023-03-02T19:46:45.258Z,88.80
2023-03-02T19:49:32.451Z,88.10
2023-03-02T19:52:19.713Z,88.10
2023-03-02T19:55:10.122Z,88.40
2023-03-02T19:58:00.264Z,88.50
2023-03-02T20:00:49.087Z,88.70
2023-03-02T20:03:37.994Z,88.90
2023-03-02T20:06:30.681Z,89.10
2023-03-02T20:09:20.081Z,89.30
2023-03-02T20:12:08.362Z,89.30
2023-03-02T20:14:56.998Z,89.40
2023-03-02T20:17:44.545Z,89.60
2023-03-02T20:20:33.924Z,89.80
2023-03-02T20:23:21.627Z,90.00
2023-03-02T20:26:09.249Z,90.00
2023-03-02T20:28:58.168Z,90.10
2023-03-02T20:31:45.119Z,90.20
2023-03-02T20:34:32.134Z,90.20
2023-03-02T20:37:22.844Z,90.20
2023-03-02T20:40:11.130Z,90.40
2023-03-02T20:42:58.415Z,90.40
2023-03-02T20:45:45.924Z,90.50
2023-03-02T20:48:33.084Z,90.50
2023-03-02T20:51:21.193Z,90.60
2023-03-02T20:54:10.823Z,90.60
2023-03-02T20:56:59.148Z,90.70
2023-03-02T20:59:47.555Z,90.70
2023-03-02T21:02:35.135Z,90.80
2023-03-02T21:05:22.895Z,90.80
2023-03-02T21:08:11.535Z,90.90
2023-03-02T21:11:01.147Z,91.00
2023-03-02T21:13:49.777Z,91.00
2023-03-02T21:16:39.926Z,91.10
2023-03-02T21:19:29.705Z,91.20
2023-03-02T21:22:17.203Z,91.20
2023-03-02T21:25:09.171Z,91.20
2023-03-02T21:27:59.486Z,91.30
2023-03-02T21:30:47.053Z,91.30
2023-03-02T21:33:34.750Z,91.30
2023-03-02T21:36:25.283Z,91.40
2023-03-02T21:39:14.506Z,91.40
2023-03-02T21:42:02.202Z,91.50
2023-03-02T21:44:51.227Z,91.50
2023-03-02T21:47:39.652Z,91.60
2023-03-02T21:50:30.502Z,91.60
2023-03-02T21:53:19.474Z,91.70
2023-03-02T21:56:08.027Z,91.70
2023-03-02T21:58:57.485Z,91.80
2023-03-02T22:01:46.599Z,91.90
2023-03-02T22:04:35.638Z,91.90
2023-03-02T22:07:25.809Z,92.00
2023-03-02T22:10:25.252Z,92.00
2023-03-02T22:13:18.803Z,92.00
2023-03-02T22:16:15.030Z,92.10
2023-03-02T22:19:07.760Z,92.10
2023-03-02T22:21:57.031Z,92.20
2023-03-02T22:24:49.426Z,92.20
2023-03-02T22:27:37.134Z,92.20
2023-03-02T22:30:26.897Z,92.20
2023-03-02T22:33:20.986Z,92.30
2023-03-02T22:36:19.897Z,92.30
2023-03-02T22:39:13.106Z,92.40
2023-03-02T22:42:06.410Z,92.40
2023-03-02T22:45:01.585Z,92.50
2023-03-02T22:47:52.747Z,92.50
2023-03-02T22:50:40.781Z,92.60
2023-03-02T22:53:32.398Z,92.60
2023-03-02T22:56:31.217Z,92.70
2023-03-02T22:59:24.918Z,92.70
2023-03-02T23:02:22.479Z,92.70
2023-03-02T23:05:26.275Z,92.80
2023-03-02T23:08:21.357Z,92.80
2023-03-02T23:11:17.932Z,92.80
2023-03-02T23:14:22.741Z,92.90
2023-03-02T23:17:17.105Z,92.90
2023-03-02T23:20:10.785Z,92.90
2023-03-02T23:22:58.685Z,92.90
2023-03-02T23:25:47.016Z,93.00
2023-03-02T23:28:36.123Z,93.00
2023-03-02T23:31:23.581Z,93.00
2023-03-02T23:34:11.547Z,93.00
2023-03-02T23:36:59.799Z,93.00
2023-03-02T23:39:47.181Z,93.10
2023-03-02T23:42:34.444Z,93.60
2023-03-02T23:45:23.649Z,93.20
2023-03-02T23:48:11.546Z,93.30
2023-03-02T23:50:59.747Z,93.30
2023-03-02T23:53:47.497Z,93.40
2023-03-02T23:56:36.126Z,93.40
2023-03-02T23:59:23.843Z,93.40
